sensor_id;sensor_type;location;lat;lon;timestamp;P1;durP1;ratioP1;P2;durP2;ratioP2
4638;SDS011;2332;38.646;-9.154;2024-01-30T00:00:39;71.23;;;37.10;;
4638;SDS011;2332;38.646;-9.154;2024-01-30T00:03:04;61.90;;;33.93;;
4638;SDS011;2332;38.646;-9.154;2024-01-30T00:05:30;57.67;;;37.00;;
4638;SDS011;2332;38.646;-9.154;2024-01-30T00:07:55;61.13;;;35.80;;
4638;SDS011;2332;38.646;-9.154;2024-01-30T00:10:20;57.30;;;33.83;;
4638;SDS011;2332;38.646;-9.154;2024-01-30T00:12:46;62.43;;;34.50;;
4638;SDS011;2332;38.646;-9.154;2024-01-30T00:15:11;70.47;;;35.83;;
4638;SDS011;2332;38.646;-9.154;2024-01-30T00:17:37;58.57;;;34.40;;
4638;SDS011;2332;38.646;-9.154;2024-01-30T00:20:02;55.87;;;34.33;;
4638;SDS011;2332;38.646;-9.154;2024-01-30T00:22:30;61.77;;;34.20;;
4638;SDS011;2332;38.646;-9.154;2024-01-30T00:24:56;58.20;;;33.23;;
4638;SDS011;2332;38.646;-9.154;2024-01-30T00:27:21;55.40;;;32.90;;
4638;SDS011;2332;38.646;-9.154;2024-01-30T00:29:46;58.20;;;34.10;;
4638;SDS011;2332;38.646;-9.154;2024-01-30T00:32:12;65.87;;;33.53;;
4638;SDS011;2332;38.646;-9.154;2024-01-30T00:34:37;46.40;;;32.00;;
4638;SDS011;2332;38.646;-9.154;2024-01-30T00:37:03;50.50;;;32.20;;
4638;SDS011;2332;38.646;-9.154;2024-01-30T00:39:28;50.00;;;32.30;;
4638;SDS011;2332;38.646;-9.154;2024-01-30T00:41:53;52.07;;;31.10;;
4638;SDS011;2332;38.646;-9.154;2024-01-30T00:44:19;54.03;;;31.17;;
4638;SDS011;2332;38.646;-9.154;2024-01-30T00:46:44;51.80;;;29.10;;
4638;SDS011;2332;38.646;-9.154;2024-01-30T00:49:10;54.17;;;29.40;;
4638;SDS011;2332;38.646;-9.154;2024-01-30T00:51:35;51.50;;;28.03;;
4638;SDS011;2332;38.646;-9.154;2024-01-30T00:54:01;58.00;;;28.27;;
4638;SDS011;2332;38.646;-9.154;2024-01-30T00:56:28;48.07;;;28.47;;
4638;SDS011;2332;38.646;-9.154;2024-01-30T00:58:53;48.87;;;29.10;;
4638;SDS011;2332;38.646;-9.154;2024-01-30T01:01:18;40.07;;;26.93;;
4638;SDS011;2332;38.646;-9.154;2024-01-30T01:03:44;47.37;;;28.80;;
4638;SDS011;2332;38.646;-9.154;2024-01-30T01:06:09;50.87;;;28.60;;
4638;SDS011;2332;38.646;-9.154;2024-01-30T01:08:35;41.37;;;26.77;;
4638;SDS011;2332;38.646;-9.154;2024-01-30T01:11:01;51.10;;;28.40;;
4638;SDS011;2332;38.646;-9.154;2024-01-30T01:13:26;45.33;;;27.53;;
4638;SDS011;2332;38.646;-9.154;2024-01-30T01:15:51;49.83;;;27.57;;
4638;SDS011;2332;38.646;-9.154;2024-01-30T01:18:17;37.63;;;25.37;;
4638;SDS011;2332;38.646;-9.154;2024-01-30T01:20:42;37.17;;;26.57;;
4638;SDS011;2332;38.646;-9.154;2024-01-30T01:23:08;47.40;;;25.60;;
4638;SDS011;2332;38.646;-9.154;2024-01-30T01:25:33;42.03;;;26.00;;
4638;SDS011;2332;38.646;-9.154;2024-01-30T01:27:58;46.73;;;26.00;;
4638;SDS011;2332;38.646;-9.154;2024-01-30T01:30:26;47.03;;;24.97;;
4638;SDS011;2332;38.646;-9.154;2024-01-30T01:32:51;40.27;;;26.27;;
4638;SDS011;2332;38.646;-9.154;2024-01-30T01:35:21;51.83;;;25.57;;
4638;SDS011;2332;38.646;-9.154;2024-01-30T01:37:46;35.43;;;24.00;;
4638;SDS011;2332;38.646;-9.154;2024-01-30T01:40:11;42.13;;;24.10;;
4638;SDS011;2332;38.646;-9.154;2024-01-30T01:42:37;39.00;;;25.00;;
4638;SDS011;2332;38.646;-9.154;2024-01-30T01:45:03;37.70;;;24.97;;
4638;SDS011;2332;38.646;-9.154;2024-01-30T01:47:28;39.80;;;25.27;;
4638;SDS011;2332;38.646;-9.154;2024-01-30T01:49:54;40.07;;;25.00;;
4638;SDS011;2332;38.646;-9.154;2024-01-30T01:52:19;41.27;;;23.87;;
4638;SDS011;2332;38.646;-9.154;2024-01-30T01:54:45;65.27;;;25.87;;
4638;SDS011;2332;38.646;-9.154;2024-01-30T01:57:10;46.00;;;26.93;;
4638;SDS011;2332;38.646;-9.154;2024-01-30T01:59:36;44.53;;;25.93;;
4638;SDS011;2332;38.646;-9.154;2024-01-30T02:02:02;47.57;;;27.10;;
4638;SDS011;2332;38.646;-9.154;2024-01-30T02:04:27;52.07;;;28.17;;
4638;SDS011;2332;38.646;-9.154;2024-01-30T02:06:53;45.70;;;26.63;;
4638;SDS011;2332;38.646;-9.154;2024-01-30T02:09:18;47.63;;;26.23;;
4638;SDS011;2332;38.646;-9.154;2024-01-30T02:11:43;52.73;;;28.50;;
4638;SDS011;2332;38.646;-9.154;2024-01-30T02:14:09;49.30;;;28.90;;
4638;SDS011;2332;38.646;-9.154;2024-01-30T02:16:34;50.07;;;30.70;;
4638;SDS011;2332;38.646;-9.154;2024-01-30T02:18:59;46.13;;;28.53;;
4638;SDS011;2332;38.646;-9.154;2024-01-30T02:21:25;50.70;;;28.87;;
4638;SDS011;2332;38.646;-9.154;2024-01-30T02:23:50;54.93;;;30.17;;
4638;SDS011;2332;38.646;-9.154;2024-01-30T02:26:16;54.30;;;30.40;;
4638;SDS011;2332;38.646;-9.154;2024-01-30T02:28:41;50.43;;;30.47;;
4638;SDS011;2332;38.646;-9.154;2024-01-30T02:31:06;52.77;;;29.27;;
4638;SDS011;2332;38.646;-9.154;2024-01-30T02:33:32;58.23;;;31.57;;
4638;SDS011;2332;38.646;-9.154;2024-01-30T02:35:57;51.63;;;29.50;;
4638;SDS011;2332;38.646;-9.154;2024-01-30T02:38:23;49.47;;;29.40;;
4638;SDS011;2332;38.646;-9.154;2024-01-30T02:40:48;48.30;;;29.17;;
4638;SDS011;2332;38.646;-9.154;2024-01-30T02:43:14;49.30;;;28.10;;
4638;SDS011;2332;38.646;-9.154;2024-01-30T02:45:39;49.83;;;28.50;;
4638;SDS011;2332;38.646;-9.154;2024-01-30T02:48:04;50.17;;;28.13;;
4638;SDS011;2332;38.646;-9.154;2024-01-30T02:50:30;43.37;;;28.00;;
4638;SDS011;2332;38.646;-9.154;2024-01-30T02:52:55;56.80;;;28.27;;
4638;SDS011;2332;38.646;-9.154;2024-01-30T02:55:20;49.17;;;28.20;;
4638;SDS011;2332;38.646;-9.154;2024-01-30T02:57:46;50.47;;;28.63;;
4638;SDS011;2332;38.646;-9.154;2024-01-30T03:00:12;39.97;;;25.40;;
4638;SDS011;2332;38.646;-9.154;2024-01-30T03:02:37;50.87;;;27.63;;
4638;SDS011;2332;38.646;-9.154;2024-01-30T03:05:03;52.50;;;25.90;;
4638;SDS011;2332;38.646;-9.154;2024-01-30T03:07:31;48.00;;;27.40;;
4638;SDS011;2332;38.646;-9.154;2024-01-30T03:09:56;44.27;;;26.67;;
4638;SDS011;2332;38.646;-9.154;2024-01-30T03:12:22;43.63;;;26.30;;
4638;SDS011;2332;38.646;-9.154;2024-01-30T03:14:47;45.17;;;26.00;;
4638;SDS011;2332;38.646;-9.154;2024-01-30T03:17:13;54.67;;;25.67;;
4638;SDS011;2332;38.646;-9.154;2024-01-30T03:19:38;46.30;;;25.67;;
4638;SDS011;2332;38.646;-9.154;2024-01-30T03:22:04;47.40;;;25.83;;
4638;SDS011;2332;38.646;-9.154;2024-01-30T03:24:29;40.80;;;24.90;;
4638;SDS011;2332;38.646;-9.154;2024-01-30T03:26:54;46.50;;;25.63;;
4638;SDS011;2332;38.646;-9.154;2024-01-30T03:29:20;40.93;;;23.43;;
4638;SDS011;2332;38.646;-9.154;2024-01-30T03:31:45;44.13;;;24.63;;
4638;SDS011;2332;38.646;-9.154;2024-01-30T03:34:11;48.30;;;25.50;;
4638;SDS011;2332;38.646;-9.154;2024-01-30T03:36:36;46.47;;;24.43;;
4638;SDS011;2332;38.646;-9.154;2024-01-30T03:39:01;44.90;;;26.33;;
4638;SDS011;2332;38.646;-9.154;2024-01-30T03:41:27;51.10;;;27.23;;
4638;SDS011;2332;38.646;-9.154;2024-01-30T03:43:52;50.50;;;27.10;;
4638;SDS011;2332;38.646;-9.154;2024-01-30T03:46:18;46.97;;;26.70;;
4638;SDS011;2332;38.646;-9.154;2024-01-30T03:48:44;55.00;;;28.53;;
4638;SDS011;2332;38.646;-9.154;2024-01-30T03:51:09;49.50;;;28.60;;
4638;SDS011;2332;38.646;-9.154;2024-01-30T03:53:39;45.43;;;28.47;;
4638;SDS011;2332;38.646;-9.154;2024-01-30T03:56:05;49.53;;;28.53;;
4638;SDS011;2332;38.646;-9.154;2024-01-30T03:58:30;45.10;;;27.57;;
4638;SDS011;2332;38.646;-9.154;2024-01-30T04:00:56;45.97;;;27.70;;
4638;SDS011;2332;38.646;-9.154;2024-01-30T04:03:21;42.17;;;26.57;;
4638;SDS011;2332;38.646;-9.154;2024-01-30T04:05:46;47.73;;;25.30;;
4638;SDS011;2332;38.646;-9.154;2024-01-30T04:08:12;44.47;;;25.37;;
4638;SDS011;2332;38.646;-9.154;2024-01-30T04:10:37;39.27;;;25.63;;
4638;SDS011;2332;38.646;-9.154;2024-01-30T04:13:02;43.67;;;26.57;;
4638;SDS011;2332;38.646;-9.154;2024-01-30T04:15:28;41.30;;;25.83;;
4638;SDS011;2332;38.646;-9.154;2024-01-30T04:17:57;47.37;;;25.73;;
4638;SDS011;2332;38.646;-9.154;2024-01-30T04:20:22;45.93;;;25.30;;
4638;SDS011;2332;38.646;-9.154;2024-01-30T04:22:47;48.23;;;26.47;;
4638;SDS011;2332;38.646;-9.154;2024-01-30T04:25:13;47.27;;;25.27;;
4638;SDS011;2332;38.646;-9.154;2024-01-30T04:27:41;37.83;;;23.10;;
4638;SDS011;2332;38.646;-9.154;2024-01-30T04:30:07;46.20;;;24.70;;
4638;SDS011;2332;38.646;-9.154;2024-01-30T04:32:33;43.70;;;26.10;;
4638;SDS011;2332;38.646;-9.154;2024-01-30T04:34:58;43.03;;;26.13;;
4638;SDS011;2332;38.646;-9.154;2024-01-30T04:37:24;47.57;;;26.03;;
4638;SDS011;2332;38.646;-9.154;2024-01-30T04:39:50;44.03;;;27.20;;
4638;SDS011;2332;38.646;-9.154;2024-01-30T04:42:16;36.83;;;25.10;;
4638;SDS011;2332;38.646;-9.154;2024-01-30T04:44:41;38.47;;;25.63;;
4638;SDS011;2332;38.646;-9.154;2024-01-30T04:47:07;39.93;;;26.17;;
4638;SDS011;2332;38.646;-9.154;2024-01-30T04:49:34;36.53;;;23.73;;
4638;SDS011;2332;38.646;-9.154;2024-01-30T04:51:59;51.47;;;26.10;;
4638;SDS011;2332;38.646;-9.154;2024-01-30T04:54:25;41.33;;;26.47;;
4638;SDS011;2332;38.646;-9.154;2024-01-30T04:56:50;45.37;;;26.03;;
4638;SDS011;2332;38.646;-9.154;2024-01-30T04:59:16;46.53;;;25.07;;
4638;SDS011;2332;38.646;-9.154;2024-01-30T05:01:41;40.30;;;24.93;;
4638;SDS011;2332;38.646;-9.154;2024-01-30T05:04:07;49.73;;;25.33;;
4638;SDS011;2332;38.646;-9.154;2024-01-30T05:06:32;50.43;;;23.77;;
4638;SDS011;2332;38.646;-9.154;2024-01-30T05:08:58;43.63;;;25.07;;
4638;SDS011;2332;38.646;-9.154;2024-01-30T05:11:23;51.30;;;24.33;;
4638;SDS011;2332;38.646;-9.154;2024-01-30T05:13:49;44.10;;;23.90;;
4638;SDS011;2332;38.646;-9.154;2024-01-30T05:16:14;53.83;;;24.33;;
4638;SDS011;2332;38.646;-9.154;2024-01-30T05:18:39;41.40;;;24.00;;
4638;SDS011;2332;38.646;-9.154;2024-01-30T05:21:05;45.30;;;24.40;;
4638;SDS011;2332;38.646;-9.154;2024-01-30T05:23:30;42.50;;;24.37;;
4638;SDS011;2332;38.646;-9.154;2024-01-30T05:25:56;43.33;;;24.40;;
4638;SDS011;2332;38.646;-9.154;2024-01-30T05:28:21;41.63;;;23.20;;
4638;SDS011;2332;38.646;-9.154;2024-01-30T05:30:47;49.70;;;23.27;;
4638;SDS011;2332;38.646;-9.154;2024-01-30T05:33:12;44.33;;;23.50;;
4638;SDS011;2332;38.646;-9.154;2024-01-30T05:35:38;52.60;;;24.80;;
4638;SDS011;2332;38.646;-9.154;2024-01-30T05:38:03;45.17;;;22.17;;
4638;SDS011;2332;38.646;-9.154;2024-01-30T05:40:32;46.73;;;23.97;;
4638;SDS011;2332;38.646;-9.154;2024-01-30T05:42:57;50.43;;;23.43;;
4638;SDS011;2332;38.646;-9.154;2024-01-30T05:45:27;44.67;;;24.13;;
4638;SDS011;2332;38.646;-9.154;2024-01-30T05:47:53;43.83;;;23.83;;
4638;SDS011;2332;38.646;-9.154;2024-01-30T05:50:19;53.13;;;24.63;;
4638;SDS011;2332;38.646;-9.154;2024-01-30T05:52:44;49.00;;;25.07;;
4638;SDS011;2332;38.646;-9.154;2024-01-30T05:55:09;52.30;;;24.60;;
4638;SDS011;2332;38.646;-9.154;2024-01-30T05:57:36;52.03;;;23.93;;
4638;SDS011;2332;38.646;-9.154;2024-01-30T06:00:02;46.53;;;22.07;;
4638;SDS011;2332;38.646;-9.154;2024-01-30T06:02:28;43.00;;;22.53;;
4638;SDS011;2332;38.646;-9.154;2024-01-30T06:04:54;42.60;;;22.00;;
4638;SDS011;2332;38.646;-9.154;2024-01-30T06:07:20;51.03;;;21.80;;
4638;SDS011;2332;38.646;-9.154;2024-01-30T06:09:47;43.80;;;22.60;;
4638;SDS011;2332;38.646;-9.154;2024-01-30T06:12:12;42.40;;;22.53;;
4638;SDS011;2332;38.646;-9.154;2024-01-30T06:14:37;39.00;;;21.40;;
4638;SDS011;2332;38.646;-9.154;2024-01-30T06:17:03;43.07;;;22.97;;
4638;SDS011;2332;38.646;-9.154;2024-01-30T06:19:30;50.60;;;21.90;;
4638;SDS011;2332;38.646;-9.154;2024-01-30T06:21:55;43.80;;;22.03;;
4638;SDS011;2332;38.646;-9.154;2024-01-30T06:24:20;48.00;;;22.83;;
4638;SDS011;2332;38.646;-9.154;2024-01-30T06:26:46;41.73;;;21.13;;
4638;SDS011;2332;38.646;-9.154;2024-01-30T06:29:11;42.33;;;21.30;;
4638;SDS011;2332;38.646;-9.154;2024-01-30T06:31:40;39.73;;;19.03;;
4638;SDS011;2332;38.646;-9.154;2024-01-30T06:34:06;49.07;;;22.30;;
4638;SDS011;2332;38.646;-9.154;2024-01-30T06:36:32;42.53;;;21.50;;
4638;SDS011;2332;38.646;-9.154;2024-01-30T06:38:57;45.30;;;20.03;;
4638;SDS011;2332;38.646;-9.154;2024-01-30T06:41:22;41.07;;;20.70;;
4638;SDS011;2332;38.646;-9.154;2024-01-30T06:43:49;37.23;;;21.20;;
4638;SDS011;2332;38.646;-9.154;2024-01-30T06:46:14;46.40;;;20.33;;
4638;SDS011;2332;38.646;-9.154;2024-01-30T06:48:40;39.30;;;21.83;;
4638;SDS011;2332;38.646;-9.154;2024-01-30T06:51:05;48.03;;;22.53;;
4638;SDS011;2332;38.646;-9.154;2024-01-30T06:53:31;48.93;;;20.30;;
4638;SDS011;2332;38.646;-9.154;2024-01-30T06:55:56;45.90;;;21.33;;
4638;SDS011;2332;38.646;-9.154;2024-01-30T06:58:21;28.93;;;19.10;;
4638;SDS011;2332;38.646;-9.154;2024-01-30T07:00:47;35.83;;;20.50;;
4638;SDS011;2332;38.646;-9.154;2024-01-30T07:03:12;47.27;;;20.13;;
4638;SDS011;2332;38.646;-9.154;2024-01-30T07:05:37;33.93;;;19.80;;
4638;SDS011;2332;38.646;-9.154;2024-01-30T07:08:03;44.37;;;20.73;;
4638;SDS011;2332;38.646;-9.154;2024-01-30T07:10:28;44.63;;;21.23;;
4638;SDS011;2332;38.646;-9.154;2024-01-30T07:12:54;39.13;;;19.80;;
4638;SDS011;2332;38.646;-9.154;2024-01-30T07:15:19;37.23;;;19.83;;
4638;SDS011;2332;38.646;-9.154;2024-01-30T07:17:45;41.30;;;19.83;;
4638;SDS011;2332;38.646;-9.154;2024-01-30T07:20:11;44.77;;;20.77;;
4638;SDS011;2332;38.646;-9.154;2024-01-30T07:22:36;45.13;;;20.40;;
4638;SDS011;2332;38.646;-9.154;2024-01-30T07:25:02;42.70;;;20.93;;
4638;SDS011;2332;38.646;-9.154;2024-01-30T07:27:27;46.30;;;20.83;;
4638;SDS011;2332;38.646;-9.154;2024-01-30T07:29:52;46.13;;;20.90;;
4638;SDS011;2332;38.646;-9.154;2024-01-30T07:32:21;42.73;;;20.97;;
4638;SDS011;2332;38.646;-9.154;2024-01-30T07:34:46;41.40;;;19.53;;
4638;SDS011;2332;38.646;-9.154;2024-01-30T07:37:12;53.83;;;20.83;;
4638;SDS011;2332;38.646;-9.154;2024-01-30T07:39:40;39.10;;;20.57;;
4638;SDS011;2332;38.646;-9.154;2024-01-30T07:42:06;34.20;;;19.53;;
4638;SDS011;2332;38.646;-9.154;2024-01-30T07:44:31;39.77;;;20.03;;
4638;SDS011;2332;38.646;-9.154;2024-01-30T07:46:56;44.43;;;20.23;;
4638;SDS011;2332;38.646;-9.154;2024-01-30T07:49:22;39.13;;;19.80;;
4638;SDS011;2332;38.646;-9.154;2024-01-30T07:51:47;53.77;;;20.00;;
4638;SDS011;2332;38.646;-9.154;2024-01-30T07:54:13;43.03;;;19.80;;
4638;SDS011;2332;38.646;-9.154;2024-01-30T07:56:38;40.47;;;19.33;;
4638;SDS011;2332;38.646;-9.154;2024-01-30T07:59:10;37.53;;;19.23;;
4638;SDS011;2332;38.646;-9.154;2024-01-30T08:01:36;46.53;;;19.77;;
4638;SDS011;2332;38.646;-9.154;2024-01-30T08:04:01;39.63;;;20.43;;
4638;SDS011;2332;38.646;-9.154;2024-01-30T08:06:27;38.43;;;18.20;;
4638;SDS011;2332;38.646;-9.154;2024-01-30T08:08:52;37.20;;;20.30;;
4638;SDS011;2332;38.646;-9.154;2024-01-30T08:11:19;39.87;;;20.53;;
4638;SDS011;2332;38.646;-9.154;2024-01-30T08:13:45;36.10;;;19.73;;
4638;SDS011;2332;38.646;-9.154;2024-01-30T08:16:10;42.23;;;19.60;;
4638;SDS011;2332;38.646;-9.154;2024-01-30T08:18:36;39.50;;;20.60;;
4638;SDS011;2332;38.646;-9.154;2024-01-30T08:21:01;45.83;;;20.40;;
4638;SDS011;2332;38.646;-9.154;2024-01-30T08:23:29;39.13;;;18.97;;
4638;SDS011;2332;38.646;-9.154;2024-01-30T08:25:55;42.57;;;18.37;;
4638;SDS011;2332;38.646;-9.154;2024-01-30T08:28:20;39.43;;;20.03;;
4638;SDS011;2332;38.646;-9.154;2024-01-30T08:30:46;33.10;;;19.13;;
4638;SDS011;2332;38.646;-9.154;2024-01-30T08:33:11;41.60;;;19.33;;
4638;SDS011;2332;38.646;-9.154;2024-01-30T08:35:36;37.83;;;19.10;;
4638;SDS011;2332;38.646;-9.154;2024-01-30T08:38:03;40.63;;;19.07;;
4638;SDS011;2332;38.646;-9.154;2024-01-30T08:40:29;40.43;;;18.70;;
4638;SDS011;2332;38.646;-9.154;2024-01-30T08:42:54;29.80;;;17.93;;
4638;SDS011;2332;38.646;-9.154;2024-01-30T08:45:20;36.23;;;19.00;;
4638;SDS011;2332;38.646;-9.154;2024-01-30T08:47:45;41.97;;;19.80;;
4638;SDS011;2332;38.646;-9.154;2024-01-30T08:50:10;36.10;;;19.70;;
4638;SDS011;2332;38.646;-9.154;2024-01-30T08:52:36;31.40;;;18.23;;
4638;SDS011;2332;38.646;-9.154;2024-01-30T08:55:01;37.63;;;18.40;;
4638;SDS011;2332;38.646;-9.154;2024-01-30T08:57:27;31.80;;;16.70;;
4638;SDS011;2332;38.646;-9.154;2024-01-30T08:59:55;42.33;;;18.73;;
4638;SDS011;2332;38.646;-9.154;2024-01-30T09:02:21;36.03;;;18.10;;
4638;SDS011;2332;38.646;-9.154;2024-01-30T09:04:46;32.20;;;16.90;;
4638;SDS011;2332;38.646;-9.154;2024-01-30T09:07:12;33.87;;;18.73;;
4638;SDS011;2332;38.646;-9.154;2024-01-30T09:09:39;32.33;;;17.17;;
4638;SDS011;2332;38.646;-9.154;2024-01-30T09:12:06;27.80;;;16.87;;
4638;SDS011;2332;38.646;-9.154;2024-01-30T09:14:34;28.10;;;16.77;;
4638;SDS011;2332;38.646;-9.154;2024-01-30T09:16:59;31.17;;;18.10;;
4638;SDS011;2332;38.646;-9.154;2024-01-30T09:19:25;32.73;;;16.30;;
4638;SDS011;2332;38.646;-9.154;2024-01-30T09:21:50;31.17;;;16.93;;
4638;SDS011;2332;38.646;-9.154;2024-01-30T09:24:15;25.77;;;16.20;;
4638;SDS011;2332;38.646;-9.154;2024-01-30T09:26:41;28.00;;;15.93;;
4638;SDS011;2332;38.646;-9.154;2024-01-30T09:29:07;31.00;;;15.83;;
4638;SDS011;2332;38.646;-9.154;2024-01-30T09:31:32;32.47;;;16.00;;
4638;SDS011;2332;38.646;-9.154;2024-01-30T09:33:57;27.20;;;15.73;;
4638;SDS011;2332;38.646;-9.154;2024-01-30T09:36:23;29.70;;;15.70;;
4638;SDS011;2332;38.646;-9.154;2024-01-30T09:38:48;27.63;;;14.10;;
4638;SDS011;2332;38.646;-9.154;2024-01-30T09:41:14;39.53;;;15.80;;
4638;SDS011;2332;38.646;-9.154;2024-01-30T09:43:40;26.70;;;15.80;;
4638;SDS011;2332;38.646;-9.154;2024-01-30T09:46:07;28.80;;;15.40;;
4638;SDS011;2332;38.646;-9.154;2024-01-30T09:48:33;20.93;;;13.73;;
4638;SDS011;2332;38.646;-9.154;2024-01-30T09:50:59;22.47;;;15.37;;
4638;SDS011;2332;38.646;-9.154;2024-01-30T09:53:24;21.50;;;13.70;;
4638;SDS011;2332;38.646;-9.154;2024-01-30T09:55:50;32.67;;;15.60;;
4638;SDS011;2332;38.646;-9.154;2024-01-30T09:58:16;32.70;;;14.90;;
4638;SDS011;2332;38.646;-9.154;2024-01-30T10:00:41;20.93;;;13.00;;
4638;SDS011;2332;38.646;-9.154;2024-01-30T10:03:08;29.23;;;14.57;;
4638;SDS011;2332;38.646;-9.154;2024-01-30T10:05:34;27.50;;;14.10;;
4638;SDS011;2332;38.646;-9.154;2024-01-30T10:08:00;22.90;;;14.30;;
4638;SDS011;2332;38.646;-9.154;2024-01-30T10:10:25;29.93;;;14.17;;
4638;SDS011;2332;38.646;-9.154;2024-01-30T10:12:51;20.33;;;15.17;;
4638;SDS011;2332;38.646;-9.154;2024-01-30T10:15:17;24.00;;;15.00;;
4638;SDS011;2332;38.646;-9.154;2024-01-30T10:17:42;24.10;;;15.00;;
4638;SDS011;2332;38.646;-9.154;2024-01-30T10:20:07;22.83;;;14.77;;
4638;SDS011;2332;38.646;-9.154;2024-01-30T10:22:33;32.07;;;15.63;;
4638;SDS011;2332;38.646;-9.154;2024-01-30T10:24:59;33.23;;;16.47;;
4638;SDS011;2332;38.646;-9.154;2024-01-30T10:27:25;29.70;;;15.30;;
4638;SDS011;2332;38.646;-9.154;2024-01-30T10:29:51;38.30;;;16.80;;
4638;SDS011;2332;38.646;-9.154;2024-01-30T10:32:17;25.00;;;16.93;;
4638;SDS011;2332;38.646;-9.154;2024-01-30T10:34:42;26.43;;;16.10;;
4638;SDS011;2332;38.646;-9.154;2024-01-30T10:37:09;23.03;;;16.70;;
4638;SDS011;2332;38.646;-9.154;2024-01-30T10:39:40;29.03;;;16.33;;
4638;SDS011;2332;38.646;-9.154;2024-01-30T10:42:07;30.63;;;16.50;;
4638;SDS011;2332;38.646;-9.154;2024-01-30T10:44:43;23.17;;;16.30;;
4638;SDS011;2332;38.646;-9.154;2024-01-30T10:47:11;34.80;;;17.43;;
4638;SDS011;2332;38.646;-9.154;2024-01-30T10:49:38;22.50;;;14.90;;
4638;SDS011;2332;38.646;-9.154;2024-01-30T10:52:05;24.80;;;16.87;;
4638;SDS011;2332;38.646;-9.154;2024-01-30T10:54:30;24.70;;;15.20;;
4638;SDS011;2332;38.646;-9.154;2024-01-30T10:56:56;29.23;;;17.07;;
4638;SDS011;2332;38.646;-9.154;2024-01-30T10:59:23;31.17;;;17.17;;
4638;SDS011;2332;38.646;-9.154;2024-01-30T11:01:49;32.50;;;16.93;;
4638;SDS011;2332;38.646;-9.154;2024-01-30T11:04:15;29.73;;;15.13;;
4638;SDS011;2332;38.646;-9.154;2024-01-30T11:06:41;28.37;;;16.03;;
4638;SDS011;2332;38.646;-9.154;2024-01-30T11:09:09;28.10;;;16.40;;
4638;SDS011;2332;38.646;-9.154;2024-01-30T11:11:50;25.27;;;15.60;;
4638;SDS011;2332;38.646;-9.154;2024-01-30T11:14:16;32.03;;;17.37;;
4638;SDS011;2332;38.646;-9.154;2024-01-30T11:16:42;23.87;;;16.03;;
4638;SDS011;2332;38.646;-9.154;2024-01-30T11:19:11;33.40;;;16.53;;
4638;SDS011;2332;38.646;-9.154;2024-01-30T11:21:43;22.80;;;14.90;;
4638;SDS011;2332;38.646;-9.154;2024-01-30T11:24:08;28.17;;;16.47;;
4638;SDS011;2332;38.646;-9.154;2024-01-30T11:26:34;26.43;;;16.40;;
4638;SDS011;2332;38.646;-9.154;2024-01-30T11:29:02;31.37;;;18.10;;
4638;SDS011;2332;38.646;-9.154;2024-01-30T11:31:28;28.63;;;16.17;;
4638;SDS011;2332;38.646;-9.154;2024-01-30T11:33:53;27.97;;;17.40;;
4638;SDS011;2332;38.646;-9.154;2024-01-30T11:36:20;26.67;;;16.10;;
4638;SDS011;2332;38.646;-9.154;2024-01-30T11:38:46;25.83;;;15.70;;
4638;SDS011;2332;38.646;-9.154;2024-01-30T11:41:12;25.93;;;16.00;;
4638;SDS011;2332;38.646;-9.154;2024-01-30T11:43:38;25.07;;;16.83;;
4638;SDS011;2332;38.646;-9.154;2024-01-30T11:46:05;28.23;;;15.10;;
4638;SDS011;2332;38.646;-9.154;2024-01-30T11:48:31;27.23;;;14.70;;
4638;SDS011;2332;38.646;-9.154;2024-01-30T11:50:56;30.63;;;15.57;;
4638;SDS011;2332;38.646;-9.154;2024-01-30T11:53:22;23.13;;;13.33;;
4638;SDS011;2332;38.646;-9.154;2024-01-30T11:55:50;24.67;;;11.73;;
4638;SDS011;2332;38.646;-9.154;2024-01-30T11:58:16;26.40;;;12.17;;
4638;SDS011;2332;38.646;-9.154;2024-01-30T12:00:41;22.30;;;11.47;;
4638;SDS011;2332;38.646;-9.154;2024-01-30T12:03:07;19.23;;;10.87;;
4638;SDS011;2332;38.646;-9.154;2024-01-30T12:05:32;16.03;;;10.30;;
4638;SDS011;2332;38.646;-9.154;2024-01-30T12:07:57;16.17;;;10.77;;
4638;SDS011;2332;38.646;-9.154;2024-01-30T12:10:25;20.53;;;11.80;;
4638;SDS011;2332;38.646;-9.154;2024-01-30T12:12:52;17.93;;;10.70;;
4638;SDS011;2332;38.646;-9.154;2024-01-30T12:15:21;16.87;;;10.23;;
4638;SDS011;2332;38.646;-9.154;2024-01-30T12:17:46;19.10;;;11.97;;
4638;SDS011;2332;38.646;-9.154;2024-01-30T12:20:17;19.30;;;10.57;;
4638;SDS011;2332;38.646;-9.154;2024-01-30T12:22:43;18.43;;;10.20;;
4638;SDS011;2332;38.646;-9.154;2024-01-30T12:27:34;23.07;;;10.40;;
4638;SDS011;2332;38.646;-9.154;2024-01-30T12:30:00;20.03;;;11.10;;
4638;SDS011;2332;38.646;-9.154;2024-01-30T12:32:25;17.43;;;9.90;;
4638;SDS011;2332;38.646;-9.154;2024-01-30T12:34:54;16.27;;;10.00;;
4638;SDS011;2332;38.646;-9.154;2024-01-30T12:37:19;18.20;;;9.50;;
4638;SDS011;2332;38.646;-9.154;2024-01-30T12:39:47;17.63;;;10.23;;
4638;SDS011;2332;38.646;-9.154;2024-01-30T12:42:13;20.00;;;10.40;;
4638;SDS011;2332;38.646;-9.154;2024-01-30T12:44:38;16.47;;;9.63;;
4638;SDS011;2332;38.646;-9.154;2024-01-30T12:47:04;21.30;;;10.60;;
4638;SDS011;2332;38.646;-9.154;2024-01-30T12:49:29;17.13;;;9.67;;
4638;SDS011;2332;38.646;-9.154;2024-01-30T12:51:55;16.73;;;10.37;;
4638;SDS011;2332;38.646;-9.154;2024-01-30T12:54:22;16.33;;;9.70;;
4638;SDS011;2332;38.646;-9.154;2024-01-30T12:56:47;23.00;;;9.97;;
4638;SDS011;2332;38.646;-9.154;2024-01-30T12:59:13;24.13;;;9.67;;
4638;SDS011;2332;38.646;-9.154;2024-01-30T13:01:38;20.10;;;9.93;;
4638;SDS011;2332;38.646;-9.154;2024-01-30T13:04:04;16.50;;;8.97;;
4638;SDS011;2332;38.646;-9.154;2024-01-30T13:06:29;17.47;;;10.20;;
4638;SDS011;2332;38.646;-9.154;2024-01-30T13:08:54;16.40;;;10.20;;
4638;SDS011;2332;38.646;-9.154;2024-01-30T13:11:20;23.30;;;9.40;;
4638;SDS011;2332;38.646;-9.154;2024-01-30T13:13:45;20.60;;;10.43;;
4638;SDS011;2332;38.646;-9.154;2024-01-30T13:16:11;18.20;;;10.00;;
4638;SDS011;2332;38.646;-9.154;2024-01-30T13:18:36;18.47;;;11.50;;
4638;SDS011;2332;38.646;-9.154;2024-01-30T13:21:01;19.50;;;10.70;;
4638;SDS011;2332;38.646;-9.154;2024-01-30T13:23:28;21.77;;;10.83;;
4638;SDS011;2332;38.646;-9.154;2024-01-30T13:25:53;13.50;;;9.37;;
4638;SDS011;2332;38.646;-9.154;2024-01-30T13:28:22;25.67;;;10.07;;
4638;SDS011;2332;38.646;-9.154;2024-01-30T13:30:48;18.30;;;10.20;;
4638;SDS011;2332;38.646;-9.154;2024-01-30T13:33:13;17.13;;;9.50;;
4638;SDS011;2332;38.646;-9.154;2024-01-30T13:35:38;21.20;;;10.60;;
4638;SDS011;2332;38.646;-9.154;2024-01-30T13:38:04;17.80;;;9.90;;
4638;SDS011;2332;38.646;-9.154;2024-01-30T13:40:29;14.70;;;9.83;;
4638;SDS011;2332;38.646;-9.154;2024-01-30T13:42:54;18.50;;;12.20;;
4638;SDS011;2332;38.646;-9.154;2024-01-30T13:45:20;21.57;;;11.00;;
4638;SDS011;2332;38.646;-9.154;2024-01-30T13:47:45;22.33;;;11.10;;
4638;SDS011;2332;38.646;-9.154;2024-01-30T13:50:11;19.83;;;9.77;;
4638;SDS011;2332;38.646;-9.154;2024-01-30T13:52:40;18.17;;;9.93;;
4638;SDS011;2332;38.646;-9.154;2024-01-30T13:55:05;18.70;;;9.70;;
4638;SDS011;2332;38.646;-9.154;2024-01-30T13:57:31;17.40;;;9.40;;
4638;SDS011;2332;38.646;-9.154;2024-01-30T14:00:00;18.50;;;9.17;;
4638;SDS011;2332;38.646;-9.154;2024-01-30T14:02:25;13.80;;;8.10;;
4638;SDS011;2332;38.646;-9.154;2024-01-30T14:04:50;15.03;;;7.87;;
4638;SDS011;2332;38.646;-9.154;2024-01-30T14:07:16;12.10;;;7.80;;
4638;SDS011;2332;38.646;-9.154;2024-01-30T14:09:43;16.37;;;7.90;;
4638;SDS011;2332;38.646;-9.154;2024-01-30T14:12:09;15.23;;;8.80;;
4638;SDS011;2332;38.646;-9.154;2024-01-30T14:14:34;14.47;;;8.70;;
4638;SDS011;2332;38.646;-9.154;2024-01-30T14:17:00;15.73;;;9.50;;
4638;SDS011;2332;38.646;-9.154;2024-01-30T14:19:25;15.53;;;9.10;;
4638;SDS011;2332;38.646;-9.154;2024-01-30T14:21:51;20.27;;;10.47;;
4638;SDS011;2332;38.646;-9.154;2024-01-30T14:24:16;15.90;;;10.30;;
4638;SDS011;2332;38.646;-9.154;2024-01-30T14:26:41;16.47;;;8.80;;
4638;SDS011;2332;38.646;-9.154;2024-01-30T14:29:07;20.70;;;10.40;;